createdAt,value
2022-12-25T00:00:29.235Z,12.28
2022-12-25T00:05:48.149Z,12.28
2022-12-25T00:11:07.739Z,12.29
2022-12-25T00:16:27.361Z,12.28
2022-12-25T00:21:46.867Z,12.28
2022-12-25T00:32:24.642Z,12.28
2022-12-25T00:37:43.936Z,12.28
2022-12-25T00:43:02.871Z,12.28
2022-12-25T00:48:22.560Z,12.28
2022-12-25T00:53:41.386Z,12.28
2022-12-25T00:59:01.127Z,12.27
2022-12-25T01:04:20.865Z,12.27
2022-12-25T01:09:40.091Z,12.27
2022-12-25T01:14:59.805Z,12.27
2022-12-25T01:20:19.213Z,12.27
2022-12-25T01:25:37.943Z,12.27
2022-12-25T01:30:57.049Z,12.27
2022-12-25T01:36:16.134Z,12.26
2022-12-25T01:41:35.578Z,12.27
2022-12-25T01:46:55.173Z,12.27
2022-12-25T01:52:15.627Z,12.26
2022-12-25T01:57:33.991Z,12.26
2022-12-25T02:02:53.703Z,12.26
2022-12-25T02:08:13.214Z,12.26
2022-12-25T02:14:47.389Z,12.26
2022-12-25T02:18:50.319Z,12.25
2022-12-25T02:24:10.059Z,12.26
2022-12-25T02:29:29.059Z,12.26
2022-12-25T02:34:48.486Z,12.26
2022-12-25T02:40:07.335Z,12.25
2022-12-25T02:45:26.147Z,12.25
2022-12-25T02:50:45.741Z,12.25
2022-12-25T02:56:05.221Z,12.25
2022-12-25T03:01:25.602Z,12.25
2022-12-25T03:06:44.846Z,12.25
2022-12-25T03:12:03.758Z,12.25
2022-12-25T03:17:22.748Z,12.25
2022-12-25T03:22:42.252Z,12.24
2022-12-25T03:28:01.865Z,12.25
2022-12-25T03:33:43.685Z,12.24
2022-12-25T03:38:40.061Z,12.24
2022-12-25T03:43:58.198Z,12.24
2022-12-25T03:49:17.741Z,12.24
2022-12-25T03:54:37.279Z,12.24
2022-12-25T03:59:56.420Z,12.24
2022-12-25T04:05:15.324Z,12.24
2022-12-25T04:10:34.968Z,12.24
2022-12-25T04:15:54.010Z,12.24
2022-12-25T04:21:12.962Z,12.24
2022-12-25T04:26:31.376Z,12.23
2022-12-25T04:31:50.715Z,12.23
2022-12-25T04:37:09.717Z,12.23
2022-12-25T04:42:29.730Z,12.22
2022-12-25T04:47:48.629Z,12.23
2022-12-25T04:53:07.726Z,12.22
2022-12-25T04:58:27.401Z,12.22
2022-12-25T05:03:47.083Z,12.23
2022-12-25T05:09:06.621Z,12.22
2022-12-25T05:19:45.265Z,12.22
2022-12-25T05:25:04.975Z,12.22
2022-12-25T05:35:43.040Z,12.22
2022-12-25T05:41:02.413Z,12.22
2022-12-25T05:46:22.251Z,12.22
2022-12-25T05:51:41.840Z,12.21
2022-12-25T05:57:01.176Z,12.22
2022-12-25T06:02:19.944Z,12.21
2022-12-25T06:07:38.867Z,12.21
2022-12-25T06:18:18.319Z,12.21
2022-12-25T06:23:37.005Z,12.21
2022-12-25T06:28:55.789Z,12.21
2022-12-25T06:34:16.030Z,12.2
2022-12-25T06:44:53.530Z,12.2
2022-12-25T06:50:12.782Z,12.2
2022-12-25T06:55:32.445Z,12.2
2022-12-25T07:00:51.978Z,12.2
2022-12-25T07:06:11.388Z,12.2
2022-12-25T07:11:30.550Z,12.2
2022-12-25T07:16:50.356Z,12.2
2022-12-25T07:22:09.483Z,12.19
2022-12-25T07:27:28.814Z,12.2
2022-12-25T07:32:50.210Z,12.19
2022-12-25T07:38:07.967Z,12.2
2022-12-25T07:43:27.407Z,12.22
2022-12-25T07:48:46.581Z,12.23
2022-12-25T07:54:05.601Z,12.22
2022-12-25T07:59:24.840Z,12.22
2022-12-25T08:04:44.172Z,12.22
2022-12-25T08:10:03.388Z,12.23
2022-12-25T08:15:22.370Z,12.25
2022-12-25T08:20:41.285Z,12.27
2022-12-25T08:26:04.408Z,12.31
2022-12-25T08:31:19.380Z,12.33
2022-12-25T08:36:39.054Z,12.36
2022-12-25T08:41:58.477Z,12.39
2022-12-25T08:47:18.089Z,12.73
2022-12-25T08:52:37.346Z,12.54
2022-12-25T08:57:56.305Z,12.44
2022-12-25T09:03:15.967Z,12.45
2022-12-25T09:08:34.769Z,12.45
2022-12-25T09:13:55.109Z,12.47
2022-12-25T09:19:14.356Z,12.54
2022-12-25T09:24:33.359Z,12.53
2022-12-25T09:29:52.777Z,12.54
2022-12-25T09:35:12.158Z,12.52
2022-12-25T09:40:30.223Z,12.83
2022-12-25T09:45:48.993Z,12.74
2022-12-25T09:51:08.187Z,13.12
2022-12-25T09:56:27.493Z,12.9
2022-12-25T10:01:46.699Z,13.15
2022-12-25T10:07:05.362Z,13
2022-12-25T10:12:24.306Z,12.79
2022-12-25T10:17:43.768Z,12.78
2022-12-25T10:23:03.289Z,12.75
2022-12-25T10:28:22.173Z,12.72
2022-12-25T10:33:41.020Z,12.71
2022-12-25T10:39:00.120Z,12.72
2022-12-25T10:44:19.144Z,12.78
2022-12-25T10:49:38.268Z,12.87
2022-12-25T10:54:57.688Z,12.78
2022-12-25T11:00:16.518Z,12.8
2022-12-25T11:05:36.149Z,12.74
2022-12-25T11:10:55.422Z,12.69
2022-12-25T11:16:14.377Z,12.78
2022-12-25T11:21:42.568Z,12.86
2022-12-25T11:26:53.164Z,12.78
2022-12-25T11:32:12.254Z,12.71
2022-12-25T11:37:32.109Z,12.8
2022-12-25T11:42:51.492Z,12.76
2022-12-25T11:48:10.048Z,12.76
2022-12-25T11:58:48.691Z,12.83
2022-12-25T12:04:07.604Z,12.78
2022-12-25T12:09:26.772Z,12.77
2022-12-25T12:14:46.370Z,12.91
2022-12-25T12:20:06.125Z,12.86
2022-12-25T12:25:25.741Z,12.82
2022-12-25T12:41:22.736Z,12.73
2022-12-25T12:46:41.624Z,12.7
2022-12-25T12:52:00.957Z,12.74
2022-12-25T12:57:20.000Z,12.96
2022-12-25T13:02:39.224Z,13.18
2022-12-25T13:07:58.628Z,13.18
2022-12-25T13:13:27.887Z,13.11
2022-12-25T13:18:36.734Z,13.16
2022-12-25T13:23:56.306Z,13.17
2022-12-25T13:29:16.139Z,13.16
2022-12-25T13:34:35.310Z,13.14
2022-12-25T13:39:54.611Z,13.11
2022-12-25T13:45:14.185Z,13.1
2022-12-25T13:50:33.777Z,13.11
2022-12-25T13:55:52.449Z,13.08
2022-12-25T14:01:11.780Z,12.83
2022-12-25T14:06:31.334Z,12.79
2022-12-25T14:11:50.422Z,12.76
2022-12-25T14:17:09.220Z,12.74
2022-12-25T14:22:28.352Z,12.7
2022-12-25T14:27:47.350Z,12.69
2022-12-25T14:33:06.646Z,12.67
2022-12-25T14:38:25.560Z,12.65
2022-12-25T14:43:44.962Z,12.64
2022-12-25T14:49:03.726Z,12.63
2022-12-25T14:54:24.033Z,12.62
2022-12-25T14:59:43.482Z,12.61
2022-12-25T15:05:03.115Z,12.6
2022-12-25T15:10:57.891Z,12.59
2022-12-25T15:15:40.995Z,12.58
2022-12-25T15:26:18.917Z,12.57
2022-12-25T15:31:37.819Z,12.57
2022-12-25T15:37:32.066Z,12.56
2022-12-25T15:48:10.359Z,12.56
2022-12-25T15:53:29.661Z,12.56
2022-12-25T15:58:49.088Z,12.55
2022-12-25T16:04:08.279Z,12.55
2022-12-25T16:09:28.020Z,12.54
2022-12-25T16:14:46.895Z,12.54
2022-12-25T16:20:05.428Z,12.54
2022-12-25T16:25:24.677Z,12.54
2022-12-25T16:30:43.910Z,12.53
2022-12-25T16:36:03.538Z,12.54
2022-12-25T16:41:22.262Z,12.54
2022-12-25T16:46:41.822Z,12.53
2022-12-25T16:52:01.034Z,12.53
2022-12-25T16:57:20.618Z,12.52
2022-12-25T17:02:39.713Z,12.52
2022-12-25T17:07:59.316Z,12.52
2022-12-25T17:13:18.215Z,12.52
2022-12-25T17:18:37.826Z,12.51
2022-12-25T17:24:02.217Z,12.51
2022-12-25T17:29:21.562Z,12.52
2022-12-25T17:34:36.165Z,12.51
2022-12-25T17:39:55.520Z,12.51
2022-12-25T17:45:15.208Z,12.51
2022-12-25T17:55:52.884Z,12.5
2022-12-25T18:01:11.178Z,12.5
2022-12-25T18:06:30.294Z,12.5
2022-12-25T18:11:49.766Z,12.5
2022-12-25T18:22:27.859Z,12.5
2022-12-25T18:27:46.658Z,12.5
2022-12-25T18:33:05.880Z,12.5
2022-12-25T18:38:25.272Z,12.5
2022-12-25T18:43:51.830Z,12.49
2022-12-25T18:49:03.583Z,12.49
2022-12-25T18:54:22.992Z,12.49
2022-12-25T19:05:01.849Z,12.48
2022-12-25T19:10:20.802Z,12.48
2022-12-25T19:15:40.330Z,12.48
2022-12-25T19:20:59.879Z,12.48
2022-12-25T19:26:19.139Z,12.48
2022-12-25T19:31:38.345Z,12.48
2022-12-25T19:36:57.918Z,12.48
2022-12-25T19:42:16.633Z,12.48
2022-12-25T19:47:35.675Z,12.48
2022-12-25T19:52:55.014Z,12.48
2022-12-25T19:58:13.963Z,12.48
2022-12-25T20:03:33.194Z,12.47
2022-12-25T20:08:52.350Z,12.48
2022-12-25T20:19:30.970Z,12.47
2022-12-25T20:24:49.739Z,12.46
2022-12-25T20:30:08.589Z,12.47
2022-12-25T20:35:27.660Z,12.46
2022-12-25T20:41:24.814Z,12.47
2022-12-25T20:46:06.937Z,12.47
2022-12-25T20:56:45.046Z,12.46
2022-12-25T21:02:04.775Z,12.47
2022-12-25T21:12:43.882Z,12.46
2022-12-25T21:18:02.998Z,12.46
2022-12-25T21:23:22.223Z,12.46
2022-12-25T21:28:41.196Z,12.46
2022-12-25T21:34:00.812Z,12.46
2022-12-25T21:39:19.829Z,12.46
2022-12-25T21:44:39.224Z,12.45
2022-12-25T21:49:58.901Z,12.46
2022-12-25T21:55:17.790Z,12.45
2022-12-25T22:00:36.641Z,12.45
2022-12-25T22:05:56.033Z,12.45
2022-12-25T22:11:15.780Z,12.46
2022-12-25T22:16:34.570Z,12.45
2022-12-25T22:21:53.856Z,12.45
2022-12-25T22:27:13.276Z,12.44
2022-12-25T22:37:52.535Z,12.45
2022-12-25T22:43:11.819Z,12.45
2022-12-25T22:48:30.820Z,12.45
2022-12-25T22:53:50.178Z,12.45
2022-12-25T23:04:28.722Z,12.44
2022-12-25T23:09:47.808Z,12.44
2022-12-25T23:15:07.347Z,12.44
2022-12-25T23:20:25.741Z,12.44
2022-12-25T23:25:44.575Z,12.44
2022-12-25T23:31:04.064Z,12.44
2022-12-25T23:36:23.587Z,12.44
2022-12-25T23:41:43.063Z,12.43
2022-12-25T23:47:02.284Z,12.44
2022-12-25T23:52:22.010Z,12.43
2022-12-25T23:57:41.623Z,12.44
